sensor_id;sensor_type;location;lat;lon;timestamp;temperature;humidity
25058;DHT22;13057;50.978;11.034;2023-05-29T00:06:14;14.10;95.60
25058;DHT22;13057;50.978;11.034;2023-05-29T00:08:59;14.10;95.50
25058;DHT22;13057;50.978;11.034;2023-05-29T00:32:15;13.70;96.10
25058;DHT22;13057;50.978;11.034;2023-05-29T01:06:21;13.20;97.10
25058;DHT22;13057;50.978;11.034;2023-05-29T02:42:31;11.90;99.90
25058;DHT22;13057;50.978;11.034;2023-05-29T03:49:49;11.50;99.90
25058;DHT22;13057;50.978;11.034;2023-05-29T03:52:28;11.50;99.90
25058;DHT22;13057;50.978;11.034;2023-05-29T04:02:17;11.60;99.90
25058;DHT22;13057;50.978;11.034;2023-05-29T07:46:53;22.30;84.60
25058;DHT22;13057;50.978;11.034;2023-05-29T07:49:20;22.50;84.30
25058;DHT22;13057;50.978;11.034;2023-05-29T07:51:46;22.50;84.90
25058;DHT22;13057;50.978;11.034;2023-05-29T07:54:12;22.70;83.90
25058;DHT22;13057;50.978;11.034;2023-05-29T07:56:38;22.90;83.90
25058;DHT22;13057;50.978;11.034;2023-05-29T08:10:11;23.20;82.60
25058;DHT22;13057;50.978;11.034;2023-05-29T08:12:37;22.80;81.40
25058;DHT22;13057;50.978;11.034;2023-05-29T08:15:03;22.10;83.70
25058;DHT22;13057;50.978;11.034;2023-05-29T08:17:31;21.60;85.00
25058;DHT22;13057;50.978;11.034;2023-05-29T08:20:00;21.20;86.50
25058;DHT22;13057;50.978;11.034;2023-05-29T08:22:32;20.70;87.80
25058;DHT22;13057;50.978;11.034;2023-05-29T08:25:01;20.80;88.90
25058;DHT22;13057;50.978;11.034;2023-05-29T08:27:29;21.50;88.80
25058;DHT22;13057;50.978;11.034;2023-05-29T08:29:56;22.20;85.50
25058;DHT22;13057;50.978;11.034;2023-05-29T08:32:22;22.50;84.60
25058;DHT22;13057;50.978;11.034;2023-05-29T08:35:10;22.80;84.60
25058;DHT22;13057;50.978;11.034;2023-05-29T08:37:35;23.20;83.00
25058;DHT22;13057;50.978;11.034;2023-05-29T08:40:02;23.40;83.40
25058;DHT22;13057;50.978;11.034;2023-05-29T08:42:36;23.10;82.30
25058;DHT22;13057;50.978;11.034;2023-05-29T08:45:07;22.50;82.80
25058;DHT22;13057;50.978;11.034;2023-05-29T08:50:53;22.10;83.30
25058;DHT22;13057;50.978;11.034;2023-05-29T08:53:21;22.50;82.70
25058;DHT22;13057;50.978;11.034;2023-05-29T08:55:48;22.80;81.90
25058;DHT22;13057;50.978;11.034;2023-05-29T08:58:17;23.10;81.20
25058;DHT22;13057;50.978;11.034;2023-05-29T09:00:46;23.40;80.50
25058;DHT22;13057;50.978;11.034;2023-05-29T09:03:12;23.40;79.10
25058;DHT22;13057;50.978;11.034;2023-05-29T09:06:03;23.60;79.40
25058;DHT22;13057;50.978;11.034;2023-05-29T09:15:48;23.60;79.20
25058;DHT22;13057;50.978;11.034;2023-05-29T09:21:36;22.80;81.00
25058;DHT22;13057;50.978;11.034;2023-05-29T09:24:04;22.30;81.40
25058;DHT22;13057;50.978;11.034;2023-05-29T09:26:31;22.00;81.90
25058;DHT22;13057;50.978;11.034;2023-05-29T09:28:58;21.90;82.80
25058;DHT22;13057;50.978;11.034;2023-05-29T09:31:24;21.80;84.50
25058;DHT22;13057;50.978;11.034;2023-05-29T09:33:50;22.20;85.10
25058;DHT22;13057;50.978;11.034;2023-05-29T09:36:21;22.50;83.20
25058;DHT22;13057;50.978;11.034;2023-05-29T09:38:48;22.80;82.60
25058;DHT22;13057;50.978;11.034;2023-05-29T09:41:21;23.20;81.20
25058;DHT22;13057;50.978;11.034;2023-05-29T09:43:50;23.40;80.40
25058;DHT22;13057;50.978;11.034;2023-05-29T09:46:17;23.50;80.70
25058;DHT22;13057;50.978;11.034;2023-05-29T09:48:47;23.40;79.70
25058;DHT22;13057;50.978;11.034;2023-05-29T09:51:24;23.40;80.90
25058;DHT22;13057;50.978;11.034;2023-05-29T09:53:50;23.40;80.00
25058;DHT22;13057;50.978;11.034;2023-05-29T09:56:21;23.60;80.30
25058;DHT22;13057;50.978;11.034;2023-05-29T09:58:55;23.80;80.10
25058;DHT22;13057;50.978;11.034;2023-05-29T10:01:26;23.80;77.90
25058;DHT22;13057;50.978;11.034;2023-05-29T10:03:58;23.60;79.00
25058;DHT22;13057;50.978;11.034;2023-05-29T10:06:27;23.80;79.50
25058;DHT22;13057;50.978;11.034;2023-05-29T10:09:26;23.90;77.80
25058;DHT22;13057;50.978;11.034;2023-05-29T10:12:19;24.10;77.50
25058;DHT22;13057;50.978;11.034;2023-05-29T10:14:49;24.00;76.10
25058;DHT22;13057;50.978;11.034;2023-05-29T10:20:37;23.90;76.50
25058;DHT22;13057;50.978;11.034;2023-05-29T10:39:39;23.60;76.00
25058;DHT22;13057;50.978;11.034;2023-05-29T10:45:06;23.60;77.20
25058;DHT22;13057;50.978;11.034;2023-05-29T10:47:32;23.40;75.60
25058;DHT22;13057;50.978;11.034;2023-05-29T10:50:09;23.30;76.10
25058;DHT22;13057;50.978;11.034;2023-05-29T10:59:25;23.50;77.80
25058;DHT22;13057;50.978;11.034;2023-05-29T11:01:54;23.30;78.10
25058;DHT22;13057;50.978;11.034;2023-05-29T11:05:03;23.20;78.00
25058;DHT22;13057;50.978;11.034;2023-05-29T11:07:51;23.00;78.20
25058;DHT22;13057;50.978;11.034;2023-05-29T11:10:41;22.90;78.90
25058;DHT22;13057;50.978;11.034;2023-05-29T11:13:08;22.80;77.20
25058;DHT22;13057;50.978;11.034;2023-05-29T11:15:34;22.70;77.70
25058;DHT22;13057;50.978;11.034;2023-05-29T11:28:45;22.50;79.10
25058;DHT22;13057;50.978;11.034;2023-05-29T11:51:11;22.40;78.40
25058;DHT22;13057;50.978;11.034;2023-05-29T12:03:43;22.50;78.00
25058;DHT22;13057;50.978;11.034;2023-05-29T12:31:14;22.70;78.60
25058;DHT22;13057;50.978;11.034;2023-05-29T12:40:57;22.60;77.60
25058;DHT22;13057;50.978;11.034;2023-05-29T12:56:53;22.50;80.20
25058;DHT22;13057;50.978;11.034;2023-05-29T12:59:20;22.60;79.40
25058;DHT22;13057;50.978;11.034;2023-05-29T13:01:46;22.50;78.40
25058;DHT22;13057;50.978;11.034;2023-05-29T13:07:24;22.30;78.50
25058;DHT22;13057;50.978;11.034;2023-05-29T13:09:53;22.30;78.80
25058;DHT22;13057;50.978;11.034;2023-05-29T13:12:19;22.30;78.40
25058;DHT22;13057;50.978;11.034;2023-05-29T13:14:45;22.40;78.60
25058;DHT22;13057;50.978;11.034;2023-05-29T13:17:10;22.50;77.60
25058;DHT22;13057;50.978;11.034;2023-05-29T13:19:36;22.50;77.10
25058;DHT22;13057;50.978;11.034;2023-05-29T13:35:37;22.60;78.30
25058;DHT22;13057;50.978;11.034;2023-05-29T13:41:27;22.50;79.00
25058;DHT22;13057;50.978;11.034;2023-05-29T13:43:56;22.50;78.50
25058;DHT22;13057;50.978;11.034;2023-05-29T13:46:24;22.50;78.60
25058;DHT22;13057;50.978;11.034;2023-05-29T13:48:52;22.50;78.50
25058;DHT22;13057;50.978;11.034;2023-05-29T13:51:25;22.60;78.70
25058;DHT22;13057;50.978;11.034;2023-05-29T13:54:04;22.70;78.70
25058;DHT22;13057;50.978;11.034;2023-05-29T13:56:30;22.80;77.10
25058;DHT22;13057;50.978;11.034;2023-05-29T13:58:57;22.80;77.80
25058;DHT22;13057;50.978;11.034;2023-05-29T14:05:08;22.70;78.20
25058;DHT22;13057;50.978;11.034;2023-05-29T14:07:42;22.70;78.60
25058;DHT22;13057;50.978;11.034;2023-05-29T14:13:39;22.40;79.40
25058;DHT22;13057;50.978;11.034;2023-05-29T14:16:05;22.40;78.50
25058;DHT22;13057;50.978;11.034;2023-05-29T14:18:31;22.30;79.60
25058;DHT22;13057;50.978;11.034;2023-05-29T14:20:57;22.30;79.00
25058;DHT22;13057;50.978;11.034;2023-05-29T14:23:23;22.30;78.10
25058;DHT22;13057;50.978;11.034;2023-05-29T14:29:11;22.50;78.50
25058;DHT22;13057;50.978;11.034;2023-05-29T14:31:40;22.50;78.10
25058;DHT22;13057;50.978;11.034;2023-05-29T14:34:09;22.40;78.20
25058;DHT22;13057;50.978;11.034;2023-05-29T14:36:35;22.40;78.80
25058;DHT22;13057;50.978;11.034;2023-05-29T14:39:08;22.40;78.80
25058;DHT22;13057;50.978;11.034;2023-05-29T15:02:04;22.20;79.80
25058;DHT22;13057;50.978;11.034;2023-05-29T15:04:33;22.30;80.30
25058;DHT22;13057;50.978;11.034;2023-05-29T15:07:01;22.30;79.40
25058;DHT22;13057;50.978;11.034;2023-05-29T15:09:27;22.30;79.50
25058;DHT22;13057;50.978;11.034;2023-05-29T15:12:02;22.30;80.20
25058;DHT22;13057;50.978;11.034;2023-05-29T15:14:28;22.20;78.70
25058;DHT22;13057;50.978;11.034;2023-05-29T15:16:57;22.10;79.30
25058;DHT22;13057;50.978;11.034;2023-05-29T15:19:29;22.10;79.50
25058;DHT22;13057;50.978;11.034;2023-05-29T15:21:58;22.10;79.50
25058;DHT22;13057;50.978;11.034;2023-05-29T15:24:38;22.10;79.30
25058;DHT22;13057;50.978;11.034;2023-05-29T15:27:20;22.00;79.60
25058;DHT22;13057;50.978;11.034;2023-05-29T15:30:11;22.10;80.40
25058;DHT22;13057;50.978;11.034;2023-05-29T15:32:38;22.10;79.20
25058;DHT22;13057;50.978;11.034;2023-05-29T15:35:07;21.90;78.50
25058;DHT22;13057;50.978;11.034;2023-05-29T15:40:55;22.00;78.80
25058;DHT22;13057;50.978;11.034;2023-05-29T15:43:21;22.00;79.20
25058;DHT22;13057;50.978;11.034;2023-05-29T15:49:10;22.00;79.10
25058;DHT22;13057;50.978;11.034;2023-05-29T15:51:53;21.90;79.40
25058;DHT22;13057;50.978;11.034;2023-05-29T15:54:22;21.90;79.30
25058;DHT22;13057;50.978;11.034;2023-05-29T15:56:48;21.90;79.20
25058;DHT22;13057;50.978;11.034;2023-05-29T15:59:14;21.80;79.60
25058;DHT22;13057;50.978;11.034;2023-05-29T16:01:40;21.70;80.20
25058;DHT22;13057;50.978;11.034;2023-05-29T16:04:09;21.70;80.60
25058;DHT22;13057;50.978;11.034;2023-05-29T16:06:35;21.70;80.80
25058;DHT22;13057;50.978;11.034;2023-05-29T16:09:05;21.70;81.00
25058;DHT22;13057;50.978;11.034;2023-05-29T16:12:19;21.70;80.80
25058;DHT22;13057;50.978;11.034;2023-05-29T16:14:45;21.70;80.70
25058;DHT22;13057;50.978;11.034;2023-05-29T16:17:13;21.70;80.50
25058;DHT22;13057;50.978;11.034;2023-05-29T16:23:03;21.70;80.40
25058;DHT22;13057;50.978;11.034;2023-05-29T16:26:09;21.70;80.60
25058;DHT22;13057;50.978;11.034;2023-05-29T16:28:36;21.60;80.30
25058;DHT22;13057;50.978;11.034;2023-05-29T16:31:01;21.60;80.50
25058;DHT22;13057;50.978;11.034;2023-05-29T16:33:27;21.60;80.50
25058;DHT22;13057;50.978;11.034;2023-05-29T16:35:53;21.60;80.60
25058;DHT22;13057;50.978;11.034;2023-05-29T16:38:19;21.60;80.60
25058;DHT22;13057;50.978;11.034;2023-05-29T16:40:45;21.50;80.40
25058;DHT22;13057;50.978;11.034;2023-05-29T16:43:11;21.50;80.80
25058;DHT22;13057;50.978;11.034;2023-05-29T16:45:39;21.50;80.70
25058;DHT22;13057;50.978;11.034;2023-05-29T16:48:08;21.50;80.90
25058;DHT22;13057;50.978;11.034;2023-05-29T16:50:34;21.60;81.00
25058;DHT22;13057;50.978;11.034;2023-05-29T16:53:01;21.60;81.10
25058;DHT22;13057;50.978;11.034;2023-05-29T16:55:29;21.50;81.20
25058;DHT22;13057;50.978;11.034;2023-05-29T16:57:55;21.50;81.30
25058;DHT22;13057;50.978;11.034;2023-05-29T17:00:21;21.50;81.90
25058;DHT22;13057;50.978;11.034;2023-05-29T17:02:47;21.50;82.10
25058;DHT22;13057;50.978;11.034;2023-05-29T17:05:13;21.50;81.40
25058;DHT22;13057;50.978;11.034;2023-05-29T17:07:39;21.40;81.30
25058;DHT22;13057;50.978;11.034;2023-05-29T17:10:07;21.30;81.50
25058;DHT22;13057;50.978;11.034;2023-05-29T17:12:34;21.40;81.90
25058;DHT22;13057;50.978;11.034;2023-05-29T17:15:01;21.40;81.80
25058;DHT22;13057;50.978;11.034;2023-05-29T17:17:54;21.40;82.00
25058;DHT22;13057;50.978;11.034;2023-05-29T17:20:23;21.40;82.00
25058;DHT22;13057;50.978;11.034;2023-05-29T17:22:49;21.40;82.10
25058;DHT22;13057;50.978;11.034;2023-05-29T17:25:17;21.50;82.40
25058;DHT22;13057;50.978;11.034;2023-05-29T17:27:43;21.50;82.60
25058;DHT22;13057;50.978;11.034;2023-05-29T17:30:11;21.50;82.20
25058;DHT22;13057;50.978;11.034;2023-05-29T17:32:37;21.40;81.90
25058;DHT22;13057;50.978;11.034;2023-05-29T17:35:03;21.30;81.90
25058;DHT22;13057;50.978;11.034;2023-05-29T17:37:29;21.20;81.60
25058;DHT22;13057;50.978;11.034;2023-05-29T17:39:55;21.20;81.80
25058;DHT22;13057;50.978;11.034;2023-05-29T17:42:21;21.10;81.90
25058;DHT22;13057;50.978;11.034;2023-05-29T17:44:47;21.00;82.70
25058;DHT22;13057;50.978;11.034;2023-05-29T18:10:51;20.50;83.90
25058;DHT22;13057;50.978;11.034;2023-05-29T18:13:17;20.40;83.60
25058;DHT22;13057;50.978;11.034;2023-05-29T18:15:43;20.40;83.80
25058;DHT22;13057;50.978;11.034;2023-05-29T18:18:09;20.30;83.50
25058;DHT22;13057;50.978;11.034;2023-05-29T18:20:35;20.30;83.50
25058;DHT22;13057;50.978;11.034;2023-05-29T18:26:23;20.30;83.40
25058;DHT22;13057;50.978;11.034;2023-05-29T18:28:48;20.20;83.50
25058;DHT22;13057;50.978;11.034;2023-05-29T18:31:22;20.10;83.70
25058;DHT22;13057;50.978;11.034;2023-05-29T18:33:49;20.10;83.90
25058;DHT22;13057;50.978;11.034;2023-05-29T18:36:16;20.00;83.80
25058;DHT22;13057;50.978;11.034;2023-05-29T18:45:35;19.80;84.30
25058;DHT22;13057;50.978;11.034;2023-05-29T19:33:08;18.80;86.10
25058;DHT22;13057;50.978;11.034;2023-05-29T19:53:07;18.40;86.10
25058;DHT22;13057;50.978;11.034;2023-05-29T19:55:45;18.30;86.40
25058;DHT22;13057;50.978;11.034;2023-05-29T20:25:57;17.90;87.20
25058;DHT22;13057;50.978;11.034;2023-05-29T20:41:54;17.70;87.30
25058;DHT22;13057;50.978;11.034;2023-05-29T20:44:39;17.60;87.40
25058;DHT22;13057;50.978;11.034;2023-05-29T21:18:04;17.40;87.80
25058;DHT22;13057;50.978;11.034;2023-05-29T21:35:20;17.20;87.20
25058;DHT22;13057;50.978;11.034;2023-05-29T21:41:10;17.10;87.10
25058;DHT22;13057;50.978;11.034;2023-05-29T21:44:01;17.10;86.80
25058;DHT22;13057;50.978;11.034;2023-05-29T22:56:54;16.10;87.70
25058;DHT22;13057;50.978;11.034;2023-05-29T22:59:41;16.00;86.90
25058;DHT22;13057;50.978;11.034;2023-05-29T23:33:08;15.50;87.00
